Time;durP1;ratioP1;P1;durP2;ratioP2;P2;SDS_P1;SDS_P2;PMS_P1;PMS_P2;Temp;Humidity;BMP_temperature;BMP_pressure;BME280_temperature;BME280_humidity;BME280_pressure;Samples;Min_cycle;Max_cycle;Signal;HPM_P1;HPM_P2
2021/04/13 00:01:37;;;;;;;;;;;;;;;5.67;65.32;101851.41;6049231;29;19960;-70
2021/04/13 00:04:41;;;;;;;;;;;;;;;5.49;66.50;101845.19;6047911;29;20140;-72
2021/04/13 00:07:45;;;;;;;;;;;;;;;5.54;65.62;101843.72;6049300;29;19924;-71
2021/04/13 00:10:50;;;;;;;;;;;;;;;5.63;66.05;101850.00;6032119;29;19955;-71
2021/04/13 00:13:54;;;;;;;2.57;1.20;;;;;;;5.57;66.23;101848.78;6047647;29;19927;-71
2021/04/13 00:17:02;;;;;;;1.40;1.30;;;;;;;5.69;66.22;101847.53;6048435;29;20222;-71
2021/04/13 00:20:09;;;;;;;;;;;;;;;5.63;65.63;101848.16;6047543;29;20556;-72
2021/04/13 00:23:14;;;;;;;1.90;1.40;;;;;;;5.54;65.72;101853.69;6047157;29;20913;-71
2021/04/13 00:26:24;;;;;;;1.40;1.30;;;;;;;5.50;66.44;101855.00;6048238;29;20202;-70
2021/04/13 00:29:30;;;;;;;3.77;1.20;;;;;;;5.63;66.10;101852.72;6047096;29;20433;-71
2021/04/13 00:32:36;;;;;;;1.20;1.20;;;;;;;5.47;66.09;101858.06;6047175;29;20399;-71
2021/04/13 00:35:44;;;;;;;1.17;1.13;;;;;;;5.41;66.95;101853.25;6048149;29;20193;-71
2021/04/13 00:38:49;;;;;;;1.10;1.10;;;;;;;5.31;66.41;101863.34;6047298;29;20230;-71
2021/04/13 00:41:56;;;;;;;2.23;1.30;;;;;;;5.24;67.31;101862.28;6047016;29;20548;-71
2021/04/13 00:45:04;;;;;;;1.60;1.50;;;;;;;5.32;67.73;101859.59;6047727;29;20200;-70
2021/04/13 00:48:14;;;;;;;3.80;1.43;;;;;;;5.23;67.59;101860.56;6046830;29;20261;-71
2021/04/13 00:51:27;;;;;;;2.93;1.33;;;;;;;5.41;66.74;101864.09;6049619;29;20198;-71
2021/04/13 00:54:35;;;;;;;3.37;1.20;;;;;;;5.42;67.08;101869.31;6035914;29;20284;-70
2021/04/13 00:57:42;;;;;;;7.40;1.60;;;;;;;5.44;66.98;101869.19;6034785;29;20229;-71
2021/04/13 01:00:51;;;;;;;2.63;1.30;;;;;;;5.27;66.50;101870.06;6051379;29;20205;-72
2021/04/13 01:04:01;;;;;;;3.37;1.37;;;;;;;5.21;67.13;101873.41;6083115;23;20236;-72
2021/04/13 01:07:11;;;;;;;1.30;1.30;;;;;;;5.06;67.54;101875.81;6074669;29;20219;-71
2021/04/13 01:10:17;;;;;;;2.43;1.40;;;;;;;5.00;67.75;101871.91;6074427;29;20218;-71
2021/04/13 01:13:34;;;;;;;7.47;1.40;;;;;;;5.15;67.13;101865.91;6075368;29;20177;-71
2021/04/13 01:16:40;;;;;;;1.60;1.37;;;;;;;5.13;66.99;101871.50;6057878;29;20229;-71
2021/04/13 01:19:53;;;;;;;4.63;1.20;;;;;;;5.17;67.97;101866.59;6075271;29;20200;-71
2021/04/13 01:23:02;;;;;;;1.20;1.10;;;;;;;5.15;67.47;101879.44;6074207;29;20480;-71
2021/04/13 01:26:06;;;;;;;1.00;1.00;;;;;;;5.11;66.88;101875.34;6075479;29;20201;-72
2021/04/13 01:29:12;;;;;;;4.70;1.20;;;;;;;5.01;67.97;101878.97;6074196;29;20391;-71
2021/04/13 01:32:16;;;;;;;1.60;1.07;;;;;;;5.03;68.36;101859.91;6075114;29;20193;-71
2021/04/13 01:35:29;;;;;;;9.90;1.27;;;;;;;4.98;67.73;101868.47;6075282;29;20225;-70
2021/04/13 01:38:39;;;;;;;9.67;1.40;;;;;;;4.97;68.03;101866.78;6074825;29;20220;-70
2021/04/13 01:41:57;;;;;;;2.57;1.37;;;;;;;5.11;67.94;101872.66;6073952;29;20198;-73
2021/04/13 01:45:06;;;;;;;1.30;1.20;;;;;;;5.07;66.98;101870.25;6057965;29;20269;-71
2021/04/13 01:48:14;;;;;;;1.20;1.20;;;;;;;4.95;67.34;101868.81;6074654;29;20197;-71
2021/04/13 01:51:17;;;;;;;3.90;1.27;;;;;;;4.77;68.79;101876.06;6074949;29;20194;-72
2021/04/13 01:54:21;;;;;;;2.83;1.00;;;;;;;4.87;68.29;101867.88;6074778;29;20193;-71
2021/04/13 01:57:34;;;;;;;4.37;1.20;;;;;;;4.84;68.00;101866.34;6056794;29;20233;-71
2021/04/13 02:00:45;;;;;;;1.27;1.17;;;;;;;4.63;68.18;101846.84;6073281;29;20201;-71
2021/04/13 02:03:57;;;;;;;1.60;1.10;;;;;;;4.72;67.62;101870.28;6073808;29;20280;-73
2021/04/13 02:07:17;;;;;;;2.43;1.20;;;;;;;4.63;67.65;101868.50;6074233;29;20196;-71
2021/04/13 02:10:26;;;;;;;1.03;1.03;;;;;;;4.72;68.01;101867.59;6074445;29;20196;-72
2021/04/13 02:13:33;;;;;;;2.83;0.90;;;;;;;4.84;66.88;101871.75;6074547;29;20197;-71
2021/04/13 02:16:50;;;;;;;1.33;1.20;;;;;;;4.67;67.35;101864.50;6074121;29;20216;-72
2021/04/13 02:19:55;;;;;;;2.13;1.00;;;;;;;4.73;66.99;101877.38;6057324;29;20257;-71
2021/04/13 02:22:59;;;;;;;1.40;1.10;;;;;;;4.48;68.03;101870.03;6074197;29;20259;-71
2021/04/13 02:26:05;;;;;;;2.90;0.87;;;;;;;4.72;67.50;101874.84;6073935;29;20193;-71
2021/04/13 02:29:11;;;;;;;1.27;1.10;;;;;;;4.69;68.04;101867.88;6074039;29;20234;-72
2021/04/13 02:32:18;;;;;;;2.70;1.07;;;;;;;4.61;67.51;101867.78;6074109;29;20287;-72
2021/04/13 02:35:24;;;;;;;1.87;1.00;;;;;;;4.44;68.22;101874.88;6072741;29;20278;-71
2021/04/13 02:38:30;;;;;;;1.23;1.07;;;;;;;4.59;67.61;101872.50;6073860;29;20265;-71
2021/04/13 02:41:40;;;;;;;6.77;1.10;;;;;;;4.30;67.85;101871.84;6074077;29;20200;-71
2021/04/13 02:44:54;;;;;;;2.83;1.10;;;;;;;4.32;69.07;101878.78;6073796;29;20193;-72
2021/04/13 02:48:07;;;;;;;5.93;1.23;;;;;;;4.40;69.15;101875.34;6072432;29;20383;-74
2021/04/13 02:51:13;;;;;;;1.37;1.20;;;;;;;4.17;68.45;101860.53;6073310;29;20256;-71
2021/04/13 02:54:21;;;;;;;0.97;0.97;;;;;;;4.28;69.64;101880.09;6073532;29;20200;-71
2021/04/13 02:57:27;;;;;;;5.60;1.03;;;;;;;4.29;69.56;101875.53;6073391;29;20291;-72
2021/04/13 03:00:34;;;;;;;6.37;1.23;;;;;;;4.35;69.10;101874.94;6073453;29;20237;-71
2021/04/13 03:03:43;;;;;;;2.07;1.30;;;;;;;4.22;69.42;101882.53;6072869;29;20245;-71
2021/04/13 03:06:52;;;;;;;3.20;1.40;;;;;;;4.27;68.73;101882.94;6072326;29;20247;-73
2021/04/13 03:10:04;;;;;;;3.33;1.30;;;;;;;4.27;69.41;101878.41;6071877;29;20204;-71
2021/04/13 03:13:13;;;;;;;1.00;1.00;;;;;;;4.30;68.56;101877.25;6072031;29;20192;-71
2021/04/13 03:16:20;;;;;;;4.23;1.10;;;;;;;4.24;69.30;101883.25;6071669;29;20558;-71
2021/04/13 03:19:28;;;;;;;2.10;1.00;;;;;;;4.11;68.96;101891.69;6072517;29;20457;-71
2021/04/13 03:22:32;;;;;;;3.63;0.93;;;;;;;4.15;69.45;101886.84;6071931;29;20223;-71
2021/04/13 03:25:41;;;;;;;4.93;1.40;;;;;;;3.97;69.60;101876.00;6071491;29;20191;-71
2021/04/13 03:28:53;;;;;;;5.63;1.33;;;;;;;3.85;70.30;101893.41;6072659;29;20203;-72
2021/04/13 03:31:59;;;;;;;4.03;1.47;;;;;;;3.92;69.48;101872.03;6072644;29;20232;-71
2021/04/13 03:35:04;;;;;;;1.53;1.27;;;;;;;3.83;70.82;101872.94;6071681;29;20199;-71
2021/04/13 03:38:12;;;;;;;3.90;1.23;;;;;;;3.76;70.60;101878.94;6072433;29;20295;-71
2021/04/13 03:41:19;;;;;;;1.57;1.47;;;;;;;4.07;69.18;101878.66;6072365;29;20255;-71
2021/04/13 03:44:23;;;;;;;3.33;1.50;;;;;;;3.89;70.71;101878.59;6072446;29;20272;-71
2021/04/13 03:47:32;;;;;;;3.97;1.20;;;;;;;3.39;70.46;101853.75;6071049;29;20224;-71
2021/04/13 03:50:40;;;;;;;2.03;1.20;;;;;;;3.66;70.81;101883.50;6071909;29;20231;-72
2021/04/13 03:53:45;;;;;;;1.47;1.37;;;;;;;3.79;71.45;101878.63;6071329;29;20258;-72
2021/04/13 03:56:48;;;;;;;3.17;1.23;;;;;;;3.94;70.28;101880.84;6072246;29;20234;-71
2021/04/13 03:59:56;;;;;;;3.67;1.87;;;;;;;3.99;69.85;101883.94;6055007;29;20236;-71
2021/04/13 04:02:59;;;;;;;5.07;1.40;;;;;;;3.93;69.29;101869.19;6071255;29;20245;-71
2021/04/13 04:06:05;;;;;;;2.17;1.40;;;;;;;3.46;71.11;101843.25;6071942;29;20191;-71
2021/04/13 04:09:15;;;;;;;3.40;1.70;;;;;;;3.88;70.31;101878.75;6071516;29;20195;-71
2021/04/13 04:12:22;;;;;;;1.50;1.47;;;;;;;3.53;70.98;101856.00;6070711;29;20437;-71
2021/04/13 04:15:29;;;;;;;9.23;1.80;;;;;;;3.67;71.00;101896.00;6071645;29;20195;-72
2021/04/13 04:18:37;;;;;;;5.10;1.50;;;;;;;3.64;71.27;101890.91;6070855;29;20248;-71
2021/04/13 04:21:43;;;;;;;4.30;1.80;;;;;;;3.44;71.46;101889.25;6071000;29;20259;-72
2021/04/13 04:24:47;;;;;;;3.53;1.60;;;;;;;3.42;71.66;101891.22;6070092;29;20382;-72
2021/04/13 04:27:55;;;;;;;5.13;1.80;;;;;;;3.65;71.61;101907.94;6071794;29;20198;-72
2021/04/13 04:31:34;;;;;;;4.33;1.80;;;;;;;3.91;71.50;101891.94;6070563;29;20191;-72
2021/04/13 04:34:53;;;;;;;5.50;1.60;;;;;;;3.49;72.24;101886.94;6069932;29;20421;-72
2021/04/13 04:38:06;;;;;;;7.33;1.40;;;;;;;3.57;71.34;101887.06;6070075;29;20219;-72
2021/04/13 04:41:11;;;;;;;5.70;1.50;;;;;;;3.77;71.85;101895.97;6071473;29;20279;-72
2021/04/13 04:44:20;;;;;;;2.97;1.70;;;;;;;3.85;70.67;101897.94;6070160;29;20482;-72
2021/04/13 04:47:35;;;;;;;3.87;1.40;;;;;;;3.69;71.36;101902.13;6071481;29;20198;-72
2021/04/13 04:50:38;;;;;;;8.10;1.70;;;;;;;3.82;71.01;101909.03;6069967;29;20449;-71
2021/04/13 04:53:43;;;;;;;8.83;1.80;;;;;;;3.91;71.89;101909.00;6070994;29;20203;-71
2021/04/13 04:56:47;;;;;;;5.30;1.30;;;;;;;4.07;70.41;101892.16;6071235;29;20265;-72
2021/04/13 04:59:50;;;;;;;3.23;1.37;;;;;;;3.87;70.94;101895.94;6071161;29;20225;-73
2021/04/13 05:02:53;;;;;;;3.83;2.00;;;;;;;3.79;70.93;101878.63;6070869;29;20244;-72
2021/04/13 05:05:58;;;;;;;6.10;1.30;;;;;;;4.10;70.13;101905.38;6070913;29;20195;-71
2021/04/13 05:09:02;;;;;;;8.43;1.97;;;;;;;4.15;70.38;101894.97;6071196;29;20243;-72
2021/04/13 05:12:08;;;;;;;5.77;1.30;;;;;;;3.72;70.30;101861.31;6070587;29;20200;-72
2021/04/13 05:15:12;;;;;;;3.53;1.40;;;;;;;4.13;70.49;101896.97;6069781;29;20423;-71
2021/04/13 05:18:16;;;;;;;4.20;1.40;;;;;;;4.01;69.74;101908.94;6070989;29;20226;-72
2021/04/13 05:21:20;;;;;;;7.27;1.60;;;;;;;4.12;69.53;101895.25;6070913;29;20222;-72
2021/04/13 05:24:24;;;;;;;3.20;1.43;;;;;;;4.15;70.13;101905.75;6069672;29;20222;-72
2021/04/13 05:27:27;;;;;;;7.53;1.50;;;;;;;4.10;69.47;101905.38;6069447;29;20502;-72
2021/04/13 05:30:30;;;;;;;11.57;1.40;;;;;;;4.05;69.76;101904.97;6069623;29;20194;-72
2021/04/13 05:33:33;;;;;;;5.80;1.30;;;;;;;4.19;69.62;101897.19;6069660;29;20543;-71
2021/04/13 05:36:38;;;;;;;4.83;1.53;;;;;;;4.48;68.37;101896.19;6069879;29;20380;-73
2021/04/13 05:39:43;;;;;;;8.27;1.40;;;;;;;4.63;67.30;101900.06;6074590;29;20216;-71
2021/04/13 05:42:48;;;;;;;3.97;1.30;;;;;;;4.52;68.45;101890.31;6074957;29;20246;-71
2021/04/13 05:45:52;;;;;;;1.43;1.20;;;;;;;4.51;68.67;101907.56;6057920;29;20249;-71
2021/04/13 05:48:56;;;;;;;3.30;1.20;;;;;;;4.57;68.40;101906.94;6073554;29;20486;-71
2021/04/13 05:51:59;;;;;;;3.67;1.20;;;;;;;4.66;67.26;101888.94;6074630;29;20192;-72
2021/04/13 05:55:05;;;;;;;6.73;1.43;;;;;;;4.83;67.38;101891.66;6073480;29;20532;-72
2021/04/13 05:58:14;;;;;;;11.13;1.60;;;;;;;4.76;67.28;101901.41;6074441;29;20219;-71
2021/04/13 06:01:20;;;;;;;4.23;1.30;;;;;;;4.72;67.14;101894.63;6057470;29;20208;-72
2021/04/13 06:04:23;;;;;;;3.60;1.10;;;;;;;4.73;67.56;101900.84;6073074;29;20243;-72
2021/04/13 06:07:27;;;;;;;17.23;1.50;;;;;;;4.87;66.60;101905.75;6074207;29;20366;-71
2021/04/13 06:10:31;;;;;;;7.80;1.37;;;;;;;4.75;66.85;101910.50;6074131;29;20198;-71
2021/04/13 06:13:34;;;;;;;8.10;1.30;;;;;;;4.91;66.50;101907.97;6057319;29;20215;-71
2021/04/13 06:16:38;;;;;;;4.17;1.60;;;;;;;5.03;66.44;101900.50;6074018;29;20261;-72
2021/04/13 06:19:43;;;;;;;3.40;1.20;;;;;;;4.98;67.09;101890.13;6072927;29;20228;-73
2021/04/13 06:22:47;;;;;;;10.90;1.47;;;;;;;5.06;65.84;101909.13;6073212;29;20260;-71
2021/04/13 06:25:52;;;;;;;5.93;1.30;;;;;;;5.20;65.70;101910.44;6074012;29;20265;-72
2021/04/13 06:28:55;;;;;;;4.13;1.30;;;;;;;5.12;65.83;101904.09;6073887;29;20208;-72
2021/04/13 06:31:58;;;;;;;8.40;1.40;;;;;;;5.28;65.13;101901.53;6074300;29;20193;-72
2021/04/13 06:35:01;;;;;;;8.10;1.43;;;;;;;5.42;64.52;101904.50;6074113;29;20197;-72
2021/04/13 06:38:10;;;;;;;1.40;1.00;;;;;;;5.41;65.12;101904.69;6073715;29;20279;-72
2021/04/13 06:41:41;;;;;;;6.97;1.20;;;;;;;5.35;64.22;101897.19;6073994;29;20200;-72
2021/04/13 06:45:13;;;;;;;7.43;1.27;;;;;;;5.86;63.91;101897.22;6040213;29;20387;-72
2021/04/13 06:48:22;;;;;;;;;;;;;;;6.06;62.01;101908.69;6072787;29;20336;-72
2021/04/13 06:51:30;;;;;;;;;;;;;;;6.14;63.34;101896.00;6072808;29;20115;-72
2021/04/13 06:54:41;;;;;;;1.70;1.30;;;;;;;6.19;61.81;101882.81;6072349;29;20167;-71
2021/04/13 06:58:02;;;;;;;8.33;1.37;;;;;;;6.44;61.35;101901.91;6072131;29;20201;-71
2021/04/13 07:01:14;;;;;;;1.30;1.00;;;;;;;6.42;61.03;101901.22;6073653;29;20193;-71
2021/04/13 07:04:24;;;;;;;;;;;;;;;6.79;59.42;101907.06;6072469;29;20239;-72
2021/04/13 07:07:32;;;;;;;;;;;;;;;7.04;59.60;101899.81;6072884;29;19973;-73
2021/04/13 07:10:40;;;;;;;;;;;;;;;7.16;58.79;101904.75;6073641;29;19919;-72
2021/04/13 07:13:49;;;;;;;;;;;;;;;7.32;58.16;101904.72;6073802;29;19919;-72
2021/04/13 07:16:55;;;;;;;1.80;1.13;;;;;;;7.20;58.55;101908.81;6072121;29;19980;-71
2021/04/13 07:20:03;;;;;;;7.18;1.73;;;;;;;7.15;58.13;101919.34;6072824;29;20289;-72
2021/04/13 07:23:13;;;;;;;2.47;1.05;;;;;;;7.28;58.90;101908.81;6073183;29;20191;-72
2021/04/13 07:26:25;;;;;;;3.72;1.20;;;;;;;6.82;58.57;101906.75;6071856;29;20190;-71
2021/04/13 07:29:36;;;;;;;1.70;1.30;;;;;;;6.85;58.02;101922.69;6072077;29;20430;-72
2021/04/13 07:32:42;;;;;;;3.75;1.20;;;;;;;6.58;58.84;101920.22;6073040;29;20195;-71
2021/04/13 07:35:47;;;;;;;2.57;1.10;;;;;;;6.54;58.52;101918.88;6072414;29;20190;-72
2021/04/13 07:38:53;;;;;;;3.17;1.17;;;;;;;6.57;58.88;101918.56;6071757;29;20525;-73
2021/04/13 07:42:03;;;;;;;4.78;1.20;;;;;;;6.44;59.91;101918.16;6072968;29;20190;-71
2021/04/13 07:45:22;;;;;;;2.57;1.10;;;;;;;6.50;58.72;101928.31;6071673;29;20191;-71
2021/04/13 07:48:58;;;;;;;3.87;1.10;;;;;;;6.77;58.92;101930.81;6071319;29;20221;-73
2021/04/13 07:52:28;;;;;;;1.60;1.40;;;;;;;6.57;58.41;101913.97;6072549;29;20240;-71
2021/04/13 07:55:46;;;;;;;5.30;1.40;;;;;;;6.59;58.69;101935.50;6071628;29;20414;-72
2021/04/13 07:58:57;;;;;;;4.23;1.27;;;;;;;6.53;58.72;101928.00;6072768;29;20214;-72
2021/04/13 08:02:01;;;;;;;2.73;1.03;;;;;;;6.74;57.62;101936.56;6071753;29;20269;-72
2021/04/13 08:05:08;;;;;;;7.28;1.33;;;;;;;6.84;58.46;101937.25;6072036;29;20191;-73
2021/04/13 08:08:25;;;;;;;6.97;1.50;;;;;;;6.76;58.18;101934.50;6072171;29;20261;-72
2021/04/13 08:11:28;;;;;;;3.43;0.97;;;;;;;6.87;57.19;101942.34;6072010;29;20191;-72
2021/04/13 08:14:49;;;;;;;2.20;1.30;;;;;;;7.04;56.76;101933.22;6070706;29;20504;-71
2021/04/13 08:18:04;;;;;;;6.53;1.50;;;;;;;6.95;56.93;101934.22;6072065;29;20253;-73
2021/04/13 08:21:21;;;;;;;5.97;1.40;;;;;;;6.92;55.58;101919.13;6071718;29;20197;-72
2021/04/13 08:24:41;;;;;;;3.00;0.97;;;;;;;7.23;55.85;101943.78;6072045;29;20197;-72
2021/04/13 08:27:46;;;;;;;3.17;1.00;;;;;;;7.25;55.34;101924.59;6071672;29;20198;-72
2021/04/13 08:34:40;;;;;;;2.45;1.20;;;;;;;7.32;55.58;101937.31;6042726;29;20232;-72
2021/04/13 08:37:53;;;;;;;4.13;1.05;;;;;;;7.09;54.22;101930.84;6070362;29;20477;-72
2021/04/13 08:41:22;;;;;;;4.80;1.25;;;;;;;7.10;53.42;101921.69;6070322;29;20219;-72
2021/04/13 08:44:34;;;;;;;1.93;1.20;;;;;;;7.11;54.19;101934.25;6071388;29;20190;-72
2021/04/13 08:47:41;;;;;;;9.25;1.42;;;;;;;6.95;55.16;101939.66;6071019;29;20190;-72
2021/04/13 08:50:48;;;;;;;5.78;1.33;;;;;;;6.83;55.77;101936.41;6069911;29;20382;-73
2021/04/13 08:54:06;;;;;;;10.10;1.60;;;;;;;7.19;55.58;101931.53;6069818;29;20483;-73
2021/04/13 08:57:31;;;;;;;6.18;1.35;;;;;;;7.09;54.32;101922.72;6070756;29;20238;-71
2021/04/13 09:00:44;;;;;;;4.15;1.17;;;;;;;7.40;52.86;101929.16;6069726;29;20222;-71
2021/04/13 09:03:47;;;;;;;5.35;1.20;;;;;;;7.29;52.36;101894.22;6069610;29;20234;-72
2021/04/13 09:06:56;;;;;;;3.67;1.10;;;;;;;7.21;53.83;101918.66;6069389;29;20398;-72
2021/04/13 09:10:15;;;;;;;6.50;1.13;;;;;;;7.48;52.26;101921.03;6070597;29;20201;-72
2021/04/13 09:13:29;;;;;;;1.77;1.00;;;;;;;7.48;51.82;101929.16;6073596;29;20230;-71
2021/04/13 09:16:37;;;;;;;4.75;1.20;;;;;;;7.48;52.40;101931.88;6074063;29;20226;-72
2021/04/13 09:19:52;;;;;;;7.10;1.40;;;;;;;7.31;52.25;101918.50;6074819;29;20245;-72
2021/04/13 09:23:08;;;;;;;3.15;0.88;;;;;;;7.58;52.51;101927.13;6075391;29;20218;-73
2021/04/13 09:26:21;;;;;;;1.20;1.20;;;;;;;7.60;53.01;101907.09;6075253;29;20191;-72
2021/04/13 09:29:39;;;;;;;2.97;1.05;;;;;;;7.66;51.95;101922.69;6073913;29;20529;-72
2021/04/13 09:32:44;;;;;;;5.53;2.70;;;;;;;7.50;51.50;101910.84;6074927;29;20239;-72
2021/04/13 09:36:13;;;;;;;2.50;1.10;;;;;;;7.55;52.06;101913.88;6073612;29;20499;-72
2021/04/13 09:39:41;;;;;;;7.72;2.03;;;;;;;7.55;52.48;101910.31;6071866;29;20261;-72
2021/04/13 09:43:21;;;;;;;7.65;1.45;;;;;;;7.53;52.41;101918.66;6073620;29;20275;-73
2021/04/13 09:46:39;;;;;;;5.80;1.00;;;;;;;7.64;52.93;101919.31;6074860;29;20231;-72
2021/04/13 09:49:54;;;;;;;4.53;1.10;;;;;;;7.44;53.12;101908.81;6074241;29;20298;-72
2021/04/13 09:53:13;;;;;;;7.40;1.33;;;;;;;7.39;53.81;101916.63;6074310;29;20190;-72
2021/04/13 09:56:35;;;;;;;5.75;1.20;;;;;;;7.67;53.31;101902.66;6072954;29;20222;-71
2021/04/13 10:00:02;;;;;;;5.13;0.95;;;;;;;7.70;53.51;101924.06;6072842;29;20254;-71
2021/04/13 10:03:55;;;;;;;2.15;1.15;;;;;;;7.86;52.98;101913.16;6073228;29;20289;-71
2021/04/13 10:07:04;;;;;;;4.40;1.50;;;;;;;7.81;53.77;101904.66;6072594;29;20375;-72
2021/04/13 10:10:21;;;;;;;7.13;1.20;;;;;;;7.40;53.36;101842.28;6072936;29;20343;-72
2021/04/13 10:14:00;;;;;;;1.00;0.98;;;;;;;7.71;53.01;101909.44;6073076;29;20216;-71
2021/04/13 10:17:23;;;;;;;1.63;1.15;;;;;;;7.72;53.19;101908.44;6073902;29;20175;-72
2021/04/13 10:20:29;;;;;;;;;;;;;;;7.75;52.97;101906.25;6073848;29;20241;-71
2021/04/13 10:24:05;;;;;;;6.82;1.20;;;;;;;7.91;53.47;101905.34;6073322;29;20079;-72
2021/04/13 10:27:27;;;;;;;;;;;;;;;7.94;53.69;101899.53;6073834;29;20190;-72
2021/04/13 10:30:49;;;;;;;;;;;;;;;7.96;53.71;101897.53;6073568;29;19954;-72
2021/04/13 10:34:10;;;;;;;;;;;;;;;7.97;52.64;101905.50;6073046;29;19943;-72
2021/04/13 10:37:34;;;;;;;;;;;;;;;8.03;52.10;101899.38;6072979;29;20007;-73
2021/04/13 10:41:18;;;;;;;1.30;1.20;;;;;;;7.99;51.47;101908.03;6068226;29;19920;-72
2021/04/13 10:44:33;;;;;;;;;;;;;;;8.12;52.59;101913.75;6074066;29;20179;-71
2021/04/13 10:47:54;;;;;;;;;;;;;;;8.16;51.30;101913.25;6073516;29;20234;-73
2021/04/13 10:51:25;;;;;;;2.63;1.00;;;;;;;8.06;51.02;101909.03;6073006;29;20094;-74
2021/04/13 10:54:42;;;;;;;2.38;1.08;;;;;;;8.14;50.92;101917.13;6072972;29;20226;-71
2021/04/13 10:58:15;;;;;;;4.88;1.10;;;;;;;8.24;51.72;101923.25;6071821;29;20202;-71
2021/04/13 11:01:47;;;;;;;1.45;1.15;;;;;;;8.34;48.54;101913.06;6053105;29;20498;-72
2021/04/13 11:05:27;;;;;;;1.20;1.10;;;;;;;8.54;48.10;101919.75;6072898;29;20191;-72
2021/04/13 11:09:03;;;;;;;4.50;1.17;;;;;;;8.74;48.23;101917.41;6072997;29;20191;-72
2021/04/13 11:12:39;;;;;;;0.90;0.90;;;;;;;8.45;49.12;101919.97;6042902;29;20246;-72
2021/04/13 11:16:06;;;;;;;2.08;0.93;;;;;;;8.43;49.31;101922.84;6071534;29;20448;-73
2021/04/13 11:19:24;;;;;;;2.15;1.00;;;;;;;8.54;49.16;101919.75;6072372;29;22067;-73
2021/04/13 11:22:57;;;;;;;;;;;;;;;8.63;48.17;101924.09;6073129;29;20190;-74
2021/04/13 11:26:28;;;;;;;;;;;;;;;8.70;48.72;101925.13;6073186;29;19955;-73
2021/04/13 11:29:49;;;;;;;;;;;;;;;8.77;48.77;101926.09;6072316;29;19938;-73
2021/04/13 11:33:13;;;;;;;;;;;;;;;8.74;49.05;101925.59;6073083;29;19920;-73
2021/04/13 11:36:35;;;;;;;8.65;1.10;;;;;;;8.58;49.41;101929.22;6072352;29;19923;-73
2021/04/13 11:39:41;;;;;;;4.80;1.10;;;;;;;8.64;49.54;101925.81;6071015;29;20575;-72
2021/04/13 11:42:47;;;;;;;5.43;1.20;;;;;;;8.47;51.83;101917.91;6072526;29;20190;-72
2021/04/13 11:46:00;;;;;;;0.90;0.90;;;;;;;8.59;50.35;101917.34;6071469;29;20221;-72
2021/04/13 11:49:20;;;;;;;;;;;;;;;8.66;52.57;101928.34;6072605;29;20222;-72
2021/04/13 11:52:31;;;;;;;;;;;;;;;8.88;50.93;101932.16;6071281;29;19978;-72
2021/04/13 11:55:41;;;;;;;;;;;;;;;8.90;49.98;101924.63;6071473;29;20221;-71
2021/04/13 11:59:04;;;;;;;;;;;;;;;8.90;49.49;101930.09;6071336;29;20335;-72
2021/04/13 12:02:18;;;;;;;;;;;;;;;8.78;50.21;101926.94;6071218;29;19919;-72
2021/04/13 12:05:25;;;;;;;;;;;;;;;8.65;50.27;101932.94;6072120;29;20046;-72
2021/04/13 12:08:46;;;;;;;;;;;;;;;8.47;51.43;101940.53;6071124;29;19998;-71
2021/04/13 12:11:50;;;;;;;;;;;;;;;8.59;51.41;101936.38;6070766;29;19962;-71
2021/04/13 12:14:53;;;;;;;;;;;;;;;8.76;51.65;101946.16;6071846;29;19920;-71
2021/04/13 12:17:57;;;;;;;;;;;;;;;8.94;51.25;101940.44;6071843;29;19923;-72
2021/04/13 12:21:19;;;;;;;;;;;;;;;8.94;51.00;101942.28;6071950;29;19919;-71
2021/04/13 12:24:42;;;;;;;;;;;;;;;8.71;51.37;101942.25;6070960;29;19955;-72
2021/04/13 12:27:47;;;;;;;;;;;;;;;8.80;52.46;101942.06;6071771;29;19920;-72
2021/04/13 12:30:56;;;;;;;;;;;;;;;8.74;51.91;101947.34;6071582;29;20242;-71
2021/04/13 12:34:01;;;;;;;;;;;;;;;8.95;51.43;101938.56;6070582;29;19924;-72
2021/04/13 12:37:04;;;;;;;;;;;;;;;8.89;51.43;101950.16;6070748;29;19942;-73
2021/04/13 12:40:30;;;;;;;;;;;;;;;8.78;52.40;101941.38;6071298;29;19987;-72
2021/04/13 12:43:40;;;;;;;;;;;;;;;8.87;53.11;101941.31;6071376;29;20002;-71
2021/04/13 12:46:44;;;;;;;;;;;;;;;8.56;53.76;101941.31;6074380;29;20183;-71
2021/04/13 12:49:48;;;;;;;;;;;;;;;8.67;54.17;101930.91;6079255;29;19920;-72
2021/04/13 12:52:50;;;;;;;;;;;;;;;8.95;52.30;101933.13;6079280;29;19920;-72
2021/04/13 12:55:59;;;;;;;;;;;;;;;8.92;52.00;101936.19;6079529;29;19967;-72
2021/04/13 12:59:09;;;;;;;;;;;;;;;8.76;53.39;101935.25;6078135;29;19920;-72
2021/04/13 13:02:27;;;;;;;;;;;;;;;8.78;53.66;101941.38;6079094;29;19972;-72
2021/04/13 13:05:33;;;;;;;;;;;;;;;8.97;53.65;101939.22;6078359;29;19919;-72
2021/04/13 13:08:55;;;;;;;;;;;;;;;8.83;53.06;101941.69;6078026;29;20020;-71
2021/04/13 13:12:04;;;;;;;;;;;;;;;8.78;53.36;101935.09;6079084;29;19954;-73
2021/04/13 13:15:09;;;;;;;;;;;;;;;8.68;53.69;101927.13;6078066;29;20199;-71
2021/04/13 13:18:26;;;;;;;4.25;1.13;;;;;;;8.44;54.17;101932.72;6078585;29;20060;-72
2021/04/13 13:21:47;;;;;;;1.45;1.15;;;;;;;8.57;54.03;101941.16;6078232;29;20268;-72
2021/04/13 13:24:52;;;;;;;3.63;1.10;;;;;;;8.78;54.29;101933.19;6077143;29;20545;-71
2021/04/13 13:28:04;;;;;;;6.47;1.00;;;;;;;8.88;54.50;101935.72;6077399;29;20519;-73
2021/04/13 13:31:25;;;;;;;;;;;;;;;9.07;53.07;101932.50;6078645;29;20218;-71
2021/04/13 13:34:28;;;;;;;;;;;;;;;9.15;52.95;101934.34;6077649;29;19924;-72
2021/04/13 13:37:32;;;;;;;;;;;;;;;9.09;51.96;101932.34;6078736;29;19963;-71
2021/04/13 13:40:37;;;;;;;;;;;;;;;9.03;51.79;101941.22;6078976;29;19930;-72
2021/04/13 13:43:40;;;;;;;;;;;;;;;9.07;51.44;101937.09;6078554;29;19924;-71
2021/04/13 13:46:55;;;;;;;;;;;;;;;8.83;51.26;101941.69;6079104;29;19984;-71
2021/04/13 13:50:01;;;;;;;5.20;1.13;;;;;;;9.17;50.78;101926.81;6078462;29;19971;-72
2021/04/13 13:53:16;;;;;;;;;;;;;;;9.07;50.52;101934.38;6077462;29;20086;-73
2021/04/13 13:56:30;;;;;;;;;;;;;;;9.11;51.05;101922.13;6077290;29;20077;-72
2021/04/13 13:59:41;;;;;;;;;;;;;;;9.08;50.46;101938.81;6074829;29;19991;-73
2021/04/13 14:02:45;;;;;;;;;;;;;;;9.13;50.15;101941.84;6074221;29;19927;-71
2021/04/13 14:05:51;;;;;;;;;;;;;;;9.05;50.66;101939.16;6074952;29;19985;-72
2021/04/13 14:09:12;;;;;;;7.13;1.05;;;;;;;8.67;50.45;101922.75;6073926;29;20269;-73
2021/04/13 14:12:30;;;;;;;1.15;1.00;;;;;;;8.96;49.52;101945.72;6074093;29;20226;-72
2021/04/13 14:15:36;;;;;;;3.80;0.80;;;;;;;9.13;48.95;101930.94;6072932;29;20195;-71
2021/04/13 14:18:51;;;;;;;4.28;1.02;;;;;;;9.07;49.83;101932.50;6073900;29;20269;-71
2021/04/13 14:21:56;;;;;;;6.20;1.17;;;;;;;9.25;49.16;101940.38;6072419;29;20238;-71
2021/04/13 14:25:10;;;;;;;2.03;1.10;;;;;;;9.35;48.09;101930.94;6072617;29;20449;-72
2021/04/13 14:28:22;;;;;;;5.40;1.02;;;;;;;9.36;49.16;101937.25;6072862;29;20197;-73
2021/04/13 14:31:25;;;;;;;0.82;0.82;;;;;;;9.37;47.55;101936.22;6073329;29;20194;-72
2021/04/13 14:34:31;;;;;;;0.73;0.73;;;;;;;9.36;48.32;101939.97;6073700;29;20191;-72
2021/04/13 14:37:36;;;;;;;3.95;0.90;;;;;;;9.25;48.55;101945.81;6073614;29;20191;-72
2021/04/13 14:40:39;;;;;;;2.53;0.82;;;;;;;9.16;48.61;101930.59;6073284;29;20225;-72
2021/04/13 14:43:43;;;;;;;1.85;0.90;;;;;;;9.04;49.39;101937.50;6056423;29;20206;-72
2021/04/13 14:46:47;;;;;;;4.55;0.85;;;;;;;9.09;49.37;101940.53;6072449;29;20190;-72
2021/04/13 14:49:55;;;;;;;10.18;1.25;;;;;;;9.25;49.27;101934.94;6073356;29;20239;-73
2021/04/13 14:52:58;;;;;;;3.80;0.93;;;;;;;9.20;49.62;101937.34;6073178;29;20190;-72
2021/04/13 14:56:02;;;;;;;3.33;1.08;;;;;;;9.14;50.35;101940.81;6073341;29;20258;-72
2021/04/13 14:59:05;;;;;;;2.75;1.10;;;;;;;9.08;51.08;101928.78;6072880;29;20215;-72
2021/04/13 15:02:08;;;;;;;7.50;1.05;;;;;;;9.12;51.56;101937.41;6072732;29;20294;-71
2021/04/13 15:05:15;;;;;;;10.18;1.40;;;;;;;9.09;51.14;101932.34;6073015;29;20194;-71
2021/04/13 15:08:21;;;;;;;3.15;0.90;;;;;;;8.81;52.79;101943.75;6072042;29;20425;-72
2021/04/13 15:11:26;;;;;;;6.20;1.00;;;;;;;8.56;52.56;101944.91;6071411;29;20194;-73
2021/04/13 15:14:29;;;;;;;4.20;1.20;;;;;;;8.59;53.30;101944.53;6072757;29;20195;-73
2021/04/13 15:17:34;;;;;;;5.43;1.38;;;;;;;8.65;53.05;101948.44;6072596;29;20257;-72
2021/04/13 15:20:40;;;;;;;7.75;1.08;;;;;;;8.50;52.89;101956.47;6072755;29;20225;-73